createdAt,value
2022-08-22T00:02:57.845Z,1.92
2022-08-22T00:03:10.470Z,1.10
2022-08-22T00:03:12.822Z,0.70
2022-08-22T02:29:22.919Z,1.45
2022-08-22T02:43:30.342Z,1.55
2022-08-22T02:46:00.860Z,2.05
2022-08-22T02:48:32.420Z,2.22
2022-08-22T02:51:02.405Z,1.77
2022-08-22T02:53:34.340Z,1.80
2022-08-22T02:56:17.584Z,1.92
2022-08-22T02:58:48.539Z,1.80
2022-08-22T03:01:23.831Z,1.90
2022-08-22T03:03:52.376Z,1.55
2022-08-22T03:06:38.476Z,1.65
2022-08-22T03:09:21.699Z,1.85
2022-08-22T03:12:15.279Z,2.85
2022-08-22T03:14:45.729Z,2.08
2022-08-22T03:17:23.642Z,2.08
2022-08-22T03:19:57.710Z,2.08
2022-08-22T03:22:25.281Z,1.65
2022-08-22T03:25:08.450Z,1.90
2022-08-22T03:27:40.144Z,1.50
2022-08-22T03:30:14.336Z,1.57
2022-08-22T03:32:54.309Z,2.00
2022-08-22T03:35:33.229Z,2.05
2022-08-22T03:38:15.319Z,2.38
2022-08-22T03:40:46.294Z,2.08
2022-08-22T03:43:34.095Z,1.70
2022-08-22T03:46:02.275Z,2.28
2022-08-22T03:49:05.278Z,3.67
2022-08-22T03:51:44.981Z,2.35
2022-08-22T03:54:12.409Z,2.38
2022-08-22T03:56:39.906Z,2.92
2022-08-22T03:59:10.079Z,2.25
2022-08-22T04:01:38.284Z,2.28
2022-08-22T04:04:12.253Z,2.50
2022-08-22T04:07:31.758Z,3.05
2022-08-22T04:10:18.239Z,2.55
2022-08-22T04:12:45.662Z,2.03
2022-08-22T04:15:20.511Z,2.35
2022-08-22T04:18:00.054Z,3.05
2022-08-22T04:20:27.745Z,2.80
2022-08-22T04:23:14.632Z,2.40
2022-08-22T04:25:44.105Z,3.58
2022-08-22T04:28:17.484Z,3.40
2022-08-22T04:30:49.495Z,2.60
2022-08-22T04:33:25.550Z,2.63
2022-08-22T04:35:56.061Z,2.63
2022-08-22T04:38:27.726Z,2.17
2022-08-22T04:41:04.594Z,2.97
2022-08-22T04:43:35.520Z,2.42
2022-08-22T04:46:12.419Z,2.95
2022-08-22T04:48:43.771Z,3.20
2022-08-22T04:51:20.484Z,3.20
2022-08-22T04:53:48.248Z,3.20
2022-08-22T04:56:35.146Z,3.15
2022-08-22T04:59:05.340Z,3.15
2022-08-22T05:02:07.019Z,3.25
2022-08-22T05:04:57.570Z,3.15
2022-08-22T05:07:27.883Z,2.80
2022-08-22T05:10:09.295Z,3.35
2022-08-22T05:12:46.015Z,3.58
2022-08-22T05:15:23.149Z,2.80
2022-08-22T05:17:52.493Z,4.68
2022-08-22T05:20:22.695Z,3.28
2022-08-22T05:22:55.961Z,3.40
2022-08-22T05:25:26.426Z,3.80
2022-08-22T05:27:56.790Z,3.65
2022-08-22T05:30:26.314Z,3.22
2022-08-22T05:33:02.850Z,3.25
2022-08-22T05:35:50.217Z,2.85
2022-08-22T05:38:23.777Z,3.17
2022-08-22T05:40:55.597Z,2.90
2022-08-22T05:43:26.007Z,3.53
2022-08-22T05:45:56.628Z,3.00
2022-08-22T05:48:31.582Z,3.45
2022-08-22T05:51:05.366Z,2.83
2022-08-22T05:53:44.824Z,3.67
2022-08-22T05:56:15.056Z,3.55
2022-08-22T05:58:42.520Z,4.95
2022-08-22T06:01:16.450Z,4.40
2022-08-22T06:03:47.744Z,3.85
2022-08-22T06:06:17.231Z,4.35
2022-08-22T06:08:47.416Z,4.18
2022-08-22T06:11:19.106Z,3.72
2022-08-22T06:13:54.181Z,3.53
2022-08-22T06:16:47.377Z,3.78
2022-08-22T06:19:19.186Z,4.85
2022-08-22T06:21:49.377Z,3.35
2022-08-22T06:24:24.470Z,3.83
2022-08-22T06:26:53.192Z,4.45
2022-08-22T06:29:31.181Z,4.85
2022-08-22T06:32:01.655Z,4.88
2022-08-22T06:34:31.152Z,4.55
2022-08-22T06:36:59.594Z,4.40
2022-08-22T06:39:30.856Z,4.63
2022-08-22T06:42:03.757Z,4.65
2022-08-22T06:44:32.668Z,4.78
2022-08-22T06:47:01.687Z,4.93
2022-08-22T06:49:30.941Z,4.32
2022-08-22T06:52:00.983Z,3.75
2022-08-22T06:54:34.256Z,3.83
2022-08-22T06:57:03.794Z,4.80
2022-08-22T06:59:32.305Z,4.10
2022-08-22T07:02:07.665Z,4.93
2022-08-22T07:04:35.233Z,6.40
2022-08-22T07:07:03.168Z,4.53
2022-08-22T07:09:36.566Z,7.03
2022-08-22T07:12:11.612Z,5.75
2022-08-22T07:14:43.803Z,6.40
2022-08-22T07:17:22.740Z,5.15
2022-08-22T07:20:11.564Z,6.88
2022-08-22T07:22:39.239Z,6.18
2022-08-22T07:25:16.849Z,5.07
2022-08-22T07:27:53.569Z,5.35
2022-08-22T07:30:27.528Z,5.07
2022-08-22T07:33:26.286Z,3.80
2022-08-22T07:35:53.675Z,5.32
2022-08-22T07:38:30.463Z,5.10
2022-08-22T07:40:58.085Z,4.60
2022-08-22T07:43:41.269Z,4.30
2022-08-22T07:46:08.852Z,4.60
2022-08-22T07:49:05.850Z,4.35
2022-08-22T07:51:41.608Z,4.93
2022-08-22T07:54:10.839Z,3.42
2022-08-22T07:56:42.937Z,5.13
2022-08-22T07:59:12.985Z,3.67
2022-08-22T08:01:45.925Z,4.85
2022-08-22T08:06:42.011Z,3.55
2022-08-22T08:09:13.824Z,4.13
2022-08-22T08:11:41.887Z,4.27
2022-08-22T08:14:09.871Z,5.13
2022-08-22T08:16:43.965Z,4.77
2022-08-22T08:19:12.912Z,5.15
2022-08-22T08:21:50.000Z,4.80
2022-08-22T08:24:21.401Z,4.78
2022-08-22T08:27:12.014Z,4.40
2022-08-22T08:29:40.998Z,4.85
2022-08-22T08:32:11.006Z,4.60
2022-08-22T08:34:39.834Z,4.75
2022-08-22T08:37:16.023Z,4.63
2022-08-22T08:39:43.642Z,4.72
2022-08-22T08:42:20.952Z,4.90
2022-08-22T08:44:49.233Z,4.50
2022-08-22T08:47:22.932Z,4.82
2022-08-22T08:50:09.495Z,5.03
2022-08-22T08:52:41.050Z,6.07
2022-08-22T08:55:22.897Z,5.25
2022-08-22T08:58:06.608Z,4.55
2022-08-22T09:00:34.980Z,4.40
2022-08-22T09:03:11.839Z,4.72
2022-08-22T09:05:52.763Z,5.10
2022-08-22T09:08:29.773Z,6.13
2022-08-22T09:10:58.664Z,4.85
2022-08-22T09:13:42.590Z,5.07
2022-08-22T09:16:12.011Z,5.70
2022-08-22T09:19:02.666Z,6.25
2022-08-22T09:21:45.696Z,4.95
2022-08-22T09:24:32.499Z,5.05
2022-08-22T09:27:02.151Z,7.18
2022-08-22T09:29:54.776Z,5.65
2022-08-22T09:32:40.368Z,6.20
2022-08-22T09:35:13.518Z,6.25
2022-08-22T09:38:10.706Z,6.07
2022-08-22T09:40:53.172Z,6.47
2022-08-22T09:43:33.694Z,5.82
2022-08-22T09:46:01.950Z,5.70
2022-08-22T09:48:44.284Z,5.15
2022-08-22T09:51:33.201Z,5.30
2022-08-22T09:54:06.814Z,5.07
2022-08-22T09:56:39.668Z,6.10
2022-08-22T09:59:26.643Z,6.28
2022-08-22T10:02:00.251Z,5.05
2022-08-22T10:04:41.996Z,5.85
2022-08-22T10:07:12.072Z,6.10
2022-08-22T10:09:59.484Z,4.80
2022-08-22T10:12:36.181Z,6.53
2022-08-22T10:15:11.081Z,5.78
2022-08-22T10:17:43.105Z,5.10
2022-08-22T10:20:18.238Z,5.43
2022-08-22T10:22:56.277Z,5.60
2022-08-22T10:25:30.926Z,5.15
2022-08-22T10:30:52.568Z,5.25
2022-08-22T10:33:40.909Z,4.78
2022-08-22T10:36:14.742Z,5.75
2022-08-22T10:38:52.241Z,5.38
2022-08-22T10:41:29.613Z,5.13
2022-08-22T10:44:08.239Z,5.68
2022-08-22T10:47:01.312Z,5.13
2022-08-22T10:49:32.892Z,6.88
2022-08-22T10:52:16.217Z,6.30
2022-08-22T10:57:23.952Z,5.40
2022-08-22T11:00:01.514Z,6.13
2022-08-22T11:02:44.715Z,4.35
2022-08-22T11:05:15.649Z,4.30
2022-08-22T11:08:00.433Z,4.43
2022-08-22T11:10:27.896Z,5.30
2022-08-22T11:13:22.874Z,5.97
2022-08-22T11:16:00.434Z,4.57
2022-08-22T11:18:41.473Z,5.15
2022-08-22T11:21:39.089Z,7.22
2022-08-22T11:24:07.170Z,6.00
2022-08-22T11:26:47.827Z,5.72
2022-08-22T11:29:25.233Z,5.60
2022-08-22T11:32:07.812Z,5.22
2022-08-22T11:34:42.393Z,4.68
2022-08-22T11:37:23.957Z,4.43
2022-08-22T11:40:12.239Z,5.25
2022-08-22T11:42:49.016Z,5.35
2022-08-22T11:45:21.950Z,6.05
2022-08-22T11:48:01.173Z,5.00
2022-08-22T11:50:35.603Z,6.18
2022-08-22T11:53:11.998Z,5.93
2022-08-22T11:55:42.479Z,5.07
2022-08-22T11:58:29.294Z,5.97
2022-08-22T12:01:26.608Z,6.43
2022-08-22T12:04:03.458Z,6.72
2022-08-22T12:06:46.736Z,7.93
2022-08-22T12:54:42.179Z,16.08
2022-08-22T12:57:23.571Z,16.75
2022-08-22T13:00:00.055Z,14.80
2022-08-22T13:02:32.315Z,15.05
2022-08-22T13:05:09.774Z,16.13
2022-08-22T13:07:40.136Z,13.85
2022-08-22T13:10:17.395Z,15.30
2022-08-22T13:15:36.319Z,14.13
2022-08-22T13:18:30.315Z,11.13
2022-08-22T13:21:02.760Z,13.13
2022-08-22T13:23:39.865Z,8.57
2022-08-22T13:39:42.222Z,9.70
2022-08-22T13:42:29.777Z,10.63
2022-08-22T13:44:59.224Z,11.32
2022-08-22T13:47:31.806Z,13.25
2022-08-22T13:50:13.975Z,10.10
2022-08-22T13:52:55.254Z,10.82
2022-08-22T13:55:35.215Z,12.75
2022-08-22T13:58:27.096Z,11.73
2022-08-22T14:01:07.410Z,11.82
2022-08-22T14:03:41.720Z,13.23
2022-08-22T17:38:49.319Z,2.22
2022-08-22T17:51:57.464Z,3.92
2022-08-22T19:41:46.622Z,3.63
2022-08-22T20:38:05.935Z,4.22
2022-08-22T20:40:55.163Z,4.30
2022-08-22T20:43:30.181Z,3.30
2022-08-22T22:47:40.674Z,1.85
2022-08-22T23:03:32.600Z,2.85
2022-08-22T23:06:00.301Z,2.90
2022-08-22T23:24:32.610Z,3.17
2022-08-22T23:27:01.321Z,3.45
2022-08-22T23:45:44.600Z,4.43
2022-08-22T23:56:29.576Z,4.55
2022-08-22T23:58:57.190Z,5.05
